Terminal Aerodrome Forecast
Issued by NWS

Home | Current Version | Previous Version | Text Only | Print | Product List | Glossary On
Versions: 1 2 3 4 5 6 7 8 9 10 11 12 13 14 15 16 17 18 19 20 21 22
000
FTAK31 PAJN 050732 AAA
TAFAYA
TAF AMD
PAYA 050732Z 0508/0606 24007KT 1SM BR OVC002
      TEMPO 0508/0510 1/2SM FG
     FM051000 00000KT 5SM BR SCT002
     FM051600 00000KT P6SM SCT020 BKN040
     FM051900 17004KT P6SM OVC035
     FM060400 14005KT P6SM VCSH OVC035=

USA.gov is the U.S. government's official web portal to all federal, state and local government web resources and services.